sensor_id;sensor_type;location;lat;lon;timestamp;temperature;humidity
16515;DHT22;8370;52.556;7.970;2022-09-12T00:02:18;13.10;99.90
16515;DHT22;8370;52.556;7.970;2022-09-12T00:04:44;13.10;99.90
16515;DHT22;8370;52.556;7.970;2022-09-12T00:07:09;13.10;99.90
16515;DHT22;8370;52.556;7.970;2022-09-12T00:09:35;13.00;99.90
16515;DHT22;8370;52.556;7.970;2022-09-12T00:12:00;13.00;99.90
16515;DHT22;8370;52.556;7.970;2022-09-12T00:14:26;13.00;99.90
16515;DHT22;8370;52.556;7.970;2022-09-12T00:16:52;13.00;99.90
16515;DHT22;8370;52.556;7.970;2022-09-12T00:19:17;12.90;99.90
16515;DHT22;8370;52.556;7.970;2022-09-12T00:21:43;12.90;99.90
16515;DHT22;8370;52.556;7.970;2022-09-12T00:24:09;13.00;99.90
16515;DHT22;8370;52.556;7.970;2022-09-12T00:26:36;12.90;99.90
16515;DHT22;8370;52.556;7.970;2022-09-12T00:29:01;12.90;99.90
16515;DHT22;8370;52.556;7.970;2022-09-12T00:31:27;12.90;99.90
16515;DHT22;8370;52.556;7.970;2022-09-12T00:33:56;12.90;99.90
16515;DHT22;8370;52.556;7.970;2022-09-12T00:36:23;12.80;99.90
16515;DHT22;8370;52.556;7.970;2022-09-12T00:38:49;12.80;99.90
16515;DHT22;8370;52.556;7.970;2022-09-12T00:41:25;12.80;99.90
16515;DHT22;8370;52.556;7.970;2022-09-12T00:51:37;12.70;99.90
16515;DHT22;8370;52.556;7.970;2022-09-12T00:54:08;12.70;99.90
16515;DHT22;8370;52.556;7.970;2022-09-12T00:56:36;12.70;99.90
16515;DHT22;8370;52.556;7.970;2022-09-12T00:59:13;12.70;99.90
16515;DHT22;8370;52.556;7.970;2022-09-12T01:01:41;12.70;99.90
16515;DHT22;8370;52.556;7.970;2022-09-12T01:04:09;12.70;99.90
16515;DHT22;8370;52.556;7.970;2022-09-12T01:06:39;12.70;99.90
16515;DHT22;8370;52.556;7.970;2022-09-12T01:09:05;12.80;99.90
16515;DHT22;8370;52.556;7.970;2022-09-12T01:11:36;12.70;99.90
16515;DHT22;8370;52.556;7.970;2022-09-12T01:14:03;12.70;99.90
16515;DHT22;8370;52.556;7.970;2022-09-12T01:16:28;12.70;99.90
16515;DHT22;8370;52.556;7.970;2022-09-12T01:24:43;12.70;99.90
16515;DHT22;8370;52.556;7.970;2022-09-12T01:30:21;12.60;99.90
16515;DHT22;8370;52.556;7.970;2022-09-12T01:33:07;12.60;99.90
16515;DHT22;8370;52.556;7.970;2022-09-12T01:41:19;12.70;99.90
16515;DHT22;8370;52.556;7.970;2022-09-12T01:44:08;12.70;99.90
16515;DHT22;8370;52.556;7.970;2022-09-12T01:46:55;12.70;99.90
16515;DHT22;8370;52.556;7.970;2022-09-12T01:52:19;12.60;99.90
16515;DHT22;8370;52.556;7.970;2022-09-12T01:54:52;12.60;99.90
16515;DHT22;8370;52.556;7.970;2022-09-12T01:57:26;12.60;99.90
16515;DHT22;8370;52.556;7.970;2022-09-12T01:59:58;12.50;99.90
16515;DHT22;8370;52.556;7.970;2022-09-12T02:02:38;12.50;99.90
16515;DHT22;8370;52.556;7.970;2022-09-12T02:05:18;12.50;99.90
16515;DHT22;8370;52.556;7.970;2022-09-12T02:07:48;12.40;99.90
16515;DHT22;8370;52.556;7.970;2022-09-12T02:10:29;12.40;99.90
16515;DHT22;8370;52.556;7.970;2022-09-12T02:13:10;12.40;99.90
16515;DHT22;8370;52.556;7.970;2022-09-12T02:15:40;12.30;99.90
16515;DHT22;8370;52.556;7.970;2022-09-12T02:18:11;12.30;99.90
16515;DHT22;8370;52.556;7.970;2022-09-12T02:20:39;12.30;99.90
16515;DHT22;8370;52.556;7.970;2022-09-12T02:23:10;12.20;99.90
16515;DHT22;8370;52.556;7.970;2022-09-12T02:25:39;12.30;99.90
16515;DHT22;8370;52.556;7.970;2022-09-12T02:28:21;12.20;99.90
16515;DHT22;8370;52.556;7.970;2022-09-12T02:31:07;12.30;99.90
16515;DHT22;8370;52.556;7.970;2022-09-12T02:36:36;12.20;99.90
16515;DHT22;8370;52.556;7.970;2022-09-12T02:39:04;12.20;99.90
16515;DHT22;8370;52.556;7.970;2022-09-12T02:41:30;12.20;99.90
16515;DHT22;8370;52.556;7.970;2022-09-12T02:43:56;12.20;99.90
16515;DHT22;8370;52.556;7.970;2022-09-12T02:46:25;12.20;99.90
16515;DHT22;8370;52.556;7.970;2022-09-12T02:48:53;12.10;99.90
16515;DHT22;8370;52.556;7.970;2022-09-12T02:51:20;12.10;99.90
16515;DHT22;8370;52.556;7.970;2022-09-12T02:53:46;12.20;99.90
16515;DHT22;8370;52.556;7.970;2022-09-12T02:56:17;12.20;99.90
16515;DHT22;8370;52.556;7.970;2022-09-12T02:58:45;12.10;99.90
16515;DHT22;8370;52.556;7.970;2022-09-12T03:06:55;12.10;99.90
16515;DHT22;8370;52.556;7.970;2022-09-12T03:09:48;12.20;99.90
16515;DHT22;8370;52.556;7.970;2022-09-12T03:21:12;12.30;99.90
16515;DHT22;8370;52.556;7.970;2022-09-12T03:23:49;12.30;99.90
16515;DHT22;8370;52.556;7.970;2022-09-12T03:26:30;12.30;99.90
16515;DHT22;8370;52.556;7.970;2022-09-12T03:28:57;12.30;99.90
16515;DHT22;8370;52.556;7.970;2022-09-12T03:31:24;12.30;99.90
16515;DHT22;8370;52.556;7.970;2022-09-12T03:33:50;12.20;99.90
16515;DHT22;8370;52.556;7.970;2022-09-12T03:36:19;12.20;99.90
16515;DHT22;8370;52.556;7.970;2022-09-12T03:38:46;12.20;99.90
16515;DHT22;8370;52.556;7.970;2022-09-12T03:41:12;12.20;99.90
16515;DHT22;8370;52.556;7.970;2022-09-12T03:43:37;12.20;99.90
16515;DHT22;8370;52.556;7.970;2022-09-12T03:46:03;12.20;99.90
16515;DHT22;8370;52.556;7.970;2022-09-12T03:48:28;12.10;99.90
16515;DHT22;8370;52.556;7.970;2022-09-12T03:50:59;12.10;99.90
16515;DHT22;8370;52.556;7.970;2022-09-12T03:53:25;12.10;99.90
16515;DHT22;8370;52.556;7.970;2022-09-12T03:55:50;12.10;99.90
16515;DHT22;8370;52.556;7.970;2022-09-12T03:58:16;12.10;99.90
16515;DHT22;8370;52.556;7.970;2022-09-12T04:00:41;12.10;99.90
16515;DHT22;8370;52.556;7.970;2022-09-12T04:03:08;12.10;99.90
16515;DHT22;8370;52.556;7.970;2022-09-12T04:05:34;12.00;99.90
16515;DHT22;8370;52.556;7.970;2022-09-12T04:08:00;12.10;99.90
16515;DHT22;8370;52.556;7.970;2022-09-12T04:10:25;12.10;99.90
16515;DHT22;8370;52.556;7.970;2022-09-12T04:12:51;12.10;99.90
16515;DHT22;8370;52.556;7.970;2022-09-12T04:15:16;12.00;99.90
16515;DHT22;8370;52.556;7.970;2022-09-12T04:17:42;12.00;99.90
16515;DHT22;8370;52.556;7.970;2022-09-12T04:20:07;12.00;99.90
16515;DHT22;8370;52.556;7.970;2022-09-12T04:22:33;11.90;99.90
16515;DHT22;8370;52.556;7.970;2022-09-12T04:24:58;11.90;99.90
16515;DHT22;8370;52.556;7.970;2022-09-12T04:27:24;11.90;99.90
16515;DHT22;8370;52.556;7.970;2022-09-12T04:29:49;11.90;99.90
16515;DHT22;8370;52.556;7.970;2022-09-12T04:32:15;11.90;99.90
16515;DHT22;8370;52.556;7.970;2022-09-12T04:34:40;11.80;99.90
16515;DHT22;8370;52.556;7.970;2022-09-12T04:37:06;11.80;99.90
16515;DHT22;8370;52.556;7.970;2022-09-12T04:39:31;11.80;99.90
16515;DHT22;8370;52.556;7.970;2022-09-12T04:41:57;11.80;99.90
16515;DHT22;8370;52.556;7.970;2022-09-12T04:44:22;11.80;99.90
16515;DHT22;8370;52.556;7.970;2022-09-12T04:46:48;11.80;99.90
16515;DHT22;8370;52.556;7.970;2022-09-12T04:49:14;11.80;99.90
16515;DHT22;8370;52.556;7.970;2022-09-12T04:51:42;11.80;99.90
16515;DHT22;8370;52.556;7.970;2022-09-12T04:54:14;11.80;99.90
16515;DHT22;8370;52.556;7.970;2022-09-12T04:56:41;11.80;99.90
16515;DHT22;8370;52.556;7.970;2022-09-12T04:59:07;11.80;99.90
16515;DHT22;8370;52.556;7.970;2022-09-12T05:01:34;11.80;99.90
16515;DHT22;8370;52.556;7.970;2022-09-12T05:04:00;11.80;99.90
16515;DHT22;8370;52.556;7.970;2022-09-12T05:06:28;11.80;99.90
16515;DHT22;8370;52.556;7.970;2022-09-12T05:08:55;11.80;99.90
16515;DHT22;8370;52.556;7.970;2022-09-12T05:11:30;11.80;99.90
16515;DHT22;8370;52.556;7.970;2022-09-12T05:13:56;11.80;99.90
16515;DHT22;8370;52.556;7.970;2022-09-12T05:16:23;11.80;99.90
16515;DHT22;8370;52.556;7.970;2022-09-12T05:18:48;11.90;99.90
16515;DHT22;8370;52.556;7.970;2022-09-12T05:21:19;11.90;99.90
16515;DHT22;8370;52.556;7.970;2022-09-12T05:23:46;11.90;99.90
16515;DHT22;8370;52.556;7.970;2022-09-12T05:26:15;11.90;99.90
16515;DHT22;8370;52.556;7.970;2022-09-12T05:28:41;11.90;99.90
16515;DHT22;8370;52.556;7.970;2022-09-12T05:31:14;11.90;99.90
16515;DHT22;8370;52.556;7.970;2022-09-12T05:33:41;11.90;99.90
16515;DHT22;8370;52.556;7.970;2022-09-12T05:36:11;12.00;99.90
16515;DHT22;8370;52.556;7.970;2022-09-12T05:38:36;12.00;99.90
16515;DHT22;8370;52.556;7.970;2022-09-12T05:41:14;12.00;99.90
16515;DHT22;8370;52.556;7.970;2022-09-12T05:43:41;12.00;99.90
16515;DHT22;8370;52.556;7.970;2022-09-12T05:46:13;12.00;99.90
16515;DHT22;8370;52.556;7.970;2022-09-12T05:48:41;12.10;99.90
16515;DHT22;8370;52.556;7.970;2022-09-12T05:51:12;12.10;99.90
16515;DHT22;8370;52.556;7.970;2022-09-12T05:53:39;12.20;99.90
16515;DHT22;8370;52.556;7.970;2022-09-12T05:56:10;12.20;99.90
16515;DHT22;8370;52.556;7.970;2022-09-12T05:58:38;12.30;99.90
16515;DHT22;8370;52.556;7.970;2022-09-12T06:01:06;12.30;99.90
16515;DHT22;8370;52.556;7.970;2022-09-12T06:03:39;12.30;99.90
16515;DHT22;8370;52.556;7.970;2022-09-12T06:06:06;12.40;99.90
16515;DHT22;8370;52.556;7.970;2022-09-12T06:08:34;12.50;99.90
16515;DHT22;8370;52.556;7.970;2022-09-12T06:11:04;12.50;99.90
16515;DHT22;8370;52.556;7.970;2022-09-12T06:13:35;12.50;99.90
16515;DHT22;8370;52.556;7.970;2022-09-12T06:16:11;12.60;99.90
16515;DHT22;8370;52.556;7.970;2022-09-12T06:18:38;12.70;99.90
16515;DHT22;8370;52.556;7.970;2022-09-12T06:21:08;12.80;99.90
16515;DHT22;8370;52.556;7.970;2022-09-12T06:23:34;12.80;99.90
16515;DHT22;8370;52.556;7.970;2022-09-12T06:26:00;13.00;99.90
16515;DHT22;8370;52.556;7.970;2022-09-12T06:28:26;13.00;99.90
16515;DHT22;8370;52.556;7.970;2022-09-12T06:30:52;13.10;99.90
16515;DHT22;8370;52.556;7.970;2022-09-12T06:33:18;13.20;99.90
16515;DHT22;8370;52.556;7.970;2022-09-12T06:35:43;13.30;99.90
16515;DHT22;8370;52.556;7.970;2022-09-12T06:38:09;13.50;99.90
16515;DHT22;8370;52.556;7.970;2022-09-12T06:40:41;13.60;99.90
16515;DHT22;8370;52.556;7.970;2022-09-12T06:43:08;13.70;99.90
16515;DHT22;8370;52.556;7.970;2022-09-12T06:45:34;13.80;99.90
16515;DHT22;8370;52.556;7.970;2022-09-12T06:48:00;14.00;99.90
16515;DHT22;8370;52.556;7.970;2022-09-12T06:50:26;14.10;99.90
16515;DHT22;8370;52.556;7.970;2022-09-12T06:52:51;14.30;99.90
16515;DHT22;8370;52.556;7.970;2022-09-12T06:55:16;14.40;99.90
16515;DHT22;8370;52.556;7.970;2022-09-12T06:57:42;14.60;99.90
16515;DHT22;8370;52.556;7.970;2022-09-12T07:00:09;14.70;99.90
16515;DHT22;8370;52.556;7.970;2022-09-12T07:02:35;14.90;99.90
16515;DHT22;8370;52.556;7.970;2022-09-12T07:05:00;15.00;99.90
16515;DHT22;8370;52.556;7.970;2022-09-12T07:07:26;15.20;99.90
16515;DHT22;8370;52.556;7.970;2022-09-12T07:09:51;15.20;99.90
16515;DHT22;8370;52.556;7.970;2022-09-12T07:12:17;15.40;99.90
16515;DHT22;8370;52.556;7.970;2022-09-12T07:14:42;15.50;99.90
16515;DHT22;8370;52.556;7.970;2022-09-12T07:17:08;15.60;99.90
16515;DHT22;8370;52.556;7.970;2022-09-12T07:19:34;15.80;99.90
16515;DHT22;8370;52.556;7.970;2022-09-12T07:22:00;15.90;99.90
16515;DHT22;8370;52.556;7.970;2022-09-12T07:24:25;16.00;99.90
16515;DHT22;8370;52.556;7.970;2022-09-12T07:26:51;16.10;99.90
16515;DHT22;8370;52.556;7.970;2022-09-12T07:29:16;16.20;99.90
16515;DHT22;8370;52.556;7.970;2022-09-12T07:31:43;16.30;99.90
16515;DHT22;8370;52.556;7.970;2022-09-12T07:34:08;16.40;99.90
16515;DHT22;8370;52.556;7.970;2022-09-12T07:36:34;16.50;99.90
16515;DHT22;8370;52.556;7.970;2022-09-12T07:38:59;16.60;99.90
16515;DHT22;8370;52.556;7.970;2022-09-12T07:41:27;16.60;99.90
16515;DHT22;8370;52.556;7.970;2022-09-12T07:43:56;16.60;99.90
16515;DHT22;8370;52.556;7.970;2022-09-12T07:46:23;16.70;99.90
16515;DHT22;8370;52.556;7.970;2022-09-12T07:48:50;16.80;99.90
16515;DHT22;8370;52.556;7.970;2022-09-12T07:51:16;16.90;99.90
16515;DHT22;8370;52.556;7.970;2022-09-12T07:53:41;17.00;99.90
16515;DHT22;8370;52.556;7.970;2022-09-12T07:56:08;17.10;99.90
16515;DHT22;8370;52.556;7.970;2022-09-12T07:58:35;17.10;99.90
16515;DHT22;8370;52.556;7.970;2022-09-12T08:01:05;17.20;99.90
16515;DHT22;8370;52.556;7.970;2022-09-12T08:03:33;17.30;99.90
16515;DHT22;8370;52.556;7.970;2022-09-12T08:06:04;17.40;99.90
16515;DHT22;8370;52.556;7.970;2022-09-12T08:08:30;17.40;99.90
16515;DHT22;8370;52.556;7.970;2022-09-12T08:10:57;17.50;99.90
16515;DHT22;8370;52.556;7.970;2022-09-12T08:13:22;17.50;99.90
16515;DHT22;8370;52.556;7.970;2022-09-12T08:15:48;17.60;99.90
16515;DHT22;8370;52.556;7.970;2022-09-12T08:18:14;17.60;99.90
16515;DHT22;8370;52.556;7.970;2022-09-12T08:20:39;17.70;99.90
16515;DHT22;8370;52.556;7.970;2022-09-12T08:23:05;17.70;99.90
16515;DHT22;8370;52.556;7.970;2022-09-12T08:25:30;17.80;99.90
16515;DHT22;8370;52.556;7.970;2022-09-12T08:27:56;17.90;99.90
16515;DHT22;8370;52.556;7.970;2022-09-12T08:30:21;18.00;99.90
16515;DHT22;8370;52.556;7.970;2022-09-12T08:32:47;18.10;99.90
16515;DHT22;8370;52.556;7.970;2022-09-12T08:35:12;18.30;99.90
16515;DHT22;8370;52.556;7.970;2022-09-12T08:37:39;18.40;99.90
16515;DHT22;8370;52.556;7.970;2022-09-12T08:40:05;18.50;99.90
16515;DHT22;8370;52.556;7.970;2022-09-12T08:42:54;18.60;99.90
16515;DHT22;8370;52.556;7.970;2022-09-12T08:45:32;18.70;99.90
16515;DHT22;8370;52.556;7.970;2022-09-12T08:48:02;18.80;99.90
16515;DHT22;8370;52.556;7.970;2022-09-12T08:50:28;18.90;99.90
16515;DHT22;8370;52.556;7.970;2022-09-12T08:52:57;19.00;99.90
16515;DHT22;8370;52.556;7.970;2022-09-12T08:55:28;19.10;99.90
16515;DHT22;8370;52.556;7.970;2022-09-12T08:57:59;19.10;99.90
16515;DHT22;8370;52.556;7.970;2022-09-12T09:00:33;19.20;99.90
16515;DHT22;8370;52.556;7.970;2022-09-12T09:05:39;19.40;99.90
16515;DHT22;8370;52.556;7.970;2022-09-12T09:08:19;19.40;99.90
16515;DHT22;8370;52.556;7.970;2022-09-12T09:16:40;19.60;99.90
16515;DHT22;8370;52.556;7.970;2022-09-12T09:19:27;19.60;99.90
16515;DHT22;8370;52.556;7.970;2022-09-12T09:22:08;19.70;99.90
16515;DHT22;8370;52.556;7.970;2022-09-12T09:25:08;19.70;99.90
16515;DHT22;8370;52.556;7.970;2022-09-12T09:27:58;19.70;99.90
16515;DHT22;8370;52.556;7.970;2022-09-12T09:30:25;19.80;99.90
16515;DHT22;8370;52.556;7.970;2022-09-12T09:32:55;19.80;99.90
16515;DHT22;8370;52.556;7.970;2022-09-12T09:35:44;19.90;99.90
16515;DHT22;8370;52.556;7.970;2022-09-12T09:43:40;20.10;99.90
16515;DHT22;8370;52.556;7.970;2022-09-12T09:46:05;20.10;99.90
16515;DHT22;8370;52.556;7.970;2022-09-12T09:48:36;20.10;99.90
16515;DHT22;8370;52.556;7.970;2022-09-12T09:51:06;20.10;99.90
16515;DHT22;8370;52.556;7.970;2022-09-12T09:53:38;20.10;99.90
16515;DHT22;8370;52.556;7.970;2022-09-12T09:56:38;20.10;99.90
16515;DHT22;8370;52.556;7.970;2022-09-12T09:59:32;20.00;99.90
16515;DHT22;8370;52.556;7.970;2022-09-12T10:02:18;20.00;99.90
16515;DHT22;8370;52.556;7.970;2022-09-12T10:04:57;20.00;99.90
16515;DHT22;8370;52.556;7.970;2022-09-12T10:07:24;20.10;99.90
16515;DHT22;8370;52.556;7.970;2022-09-12T10:10:04;20.20;99.90
16515;DHT22;8370;52.556;7.970;2022-09-12T10:12:29;20.40;99.90
16515;DHT22;8370;52.556;7.970;2022-09-12T10:15:16;20.60;99.90
16515;DHT22;8370;52.556;7.970;2022-09-12T10:17:44;20.70;99.90
16515;DHT22;8370;52.556;7.970;2022-09-12T10:20:36;20.80;99.90
16515;DHT22;8370;52.556;7.970;2022-09-12T10:23:33;21.00;99.90
16515;DHT22;8370;52.556;7.970;2022-09-12T10:26:09;21.10;99.90
16515;DHT22;8370;52.556;7.970;2022-09-12T10:28:42;21.10;99.90
16515;DHT22;8370;52.556;7.970;2022-09-12T10:31:14;21.20;99.90
16515;DHT22;8370;52.556;7.970;2022-09-12T10:33:43;21.30;99.90
16515;DHT22;8370;52.556;7.970;2022-09-12T10:36:09;21.40;99.90
16515;DHT22;8370;52.556;7.970;2022-09-12T10:38:35;21.50;99.90
16515;DHT22;8370;52.556;7.970;2022-09-12T10:41:09;21.60;99.90
16515;DHT22;8370;52.556;7.970;2022-09-12T10:43:37;21.80;99.90
16515;DHT22;8370;52.556;7.970;2022-09-12T10:48:42;22.20;99.90
16515;DHT22;8370;52.556;7.970;2022-09-12T10:53:54;22.30;99.90
16515;DHT22;8370;52.556;7.970;2022-09-12T10:56:27;22.40;99.90
16515;DHT22;8370;52.556;7.970;2022-09-12T10:59:35;22.50;99.90
16515;DHT22;8370;52.556;7.970;2022-09-12T11:05:25;22.80;99.90
16515;DHT22;8370;52.556;7.970;2022-09-12T11:13:34;22.70;99.90
16515;DHT22;8370;52.556;7.970;2022-09-12T11:25:39;24.60;99.90
16515;DHT22;8370;52.556;7.970;2022-09-12T11:31:30;27.50;99.90
16515;DHT22;8370;52.556;7.970;2022-09-12T11:34:07;28.40;99.90
16515;DHT22;8370;52.556;7.970;2022-09-12T11:39:50;29.00;99.90
16515;DHT22;8370;52.556;7.970;2022-09-12T11:42:32;30.60;99.90
16515;DHT22;8370;52.556;7.970;2022-09-12T11:45:18;32.10;99.90
16515;DHT22;8370;52.556;7.970;2022-09-12T11:47:51;33.10;99.90
16515;DHT22;8370;52.556;7.970;2022-09-12T11:50:28;33.90;98.50
16515;DHT22;8370;52.556;7.970;2022-09-12T11:53:02;34.50;96.60
16515;DHT22;8370;52.556;7.970;2022-09-12T11:55:36;35.00;95.30
16515;DHT22;8370;52.556;7.970;2022-09-12T11:58:03;36.00;93.40
16515;DHT22;8370;52.556;7.970;2022-09-12T12:00:40;36.60;91.80
16515;DHT22;8370;52.556;7.970;2022-09-12T12:08:30;38.10;83.50
16515;DHT22;8370;52.556;7.970;2022-09-12T12:11:01;38.60;82.20
16515;DHT22;8370;52.556;7.970;2022-09-12T12:13:39;38.20;80.10
16515;DHT22;8370;52.556;7.970;2022-09-12T12:16:28;37.50;77.70
16515;DHT22;8370;52.556;7.970;2022-09-12T12:19:08;36.20;78.70
16515;DHT22;8370;52.556;7.970;2022-09-12T12:21:49;35.30;80.10
16515;DHT22;8370;52.556;7.970;2022-09-12T12:34:41;31.40;84.10
16515;DHT22;8370;52.556;7.970;2022-09-12T12:47:48;28.00;90.00
16515;DHT22;8370;52.556;7.970;2022-09-12T12:53:01;27.20;91.80
16515;DHT22;8370;52.556;7.970;2022-09-12T12:55:35;26.80;92.30
16515;DHT22;8370;52.556;7.970;2022-09-12T12:58:04;26.70;92.70
16515;DHT22;8370;52.556;7.970;2022-09-12T13:00:35;26.40;92.60
16515;DHT22;8370;52.556;7.970;2022-09-12T13:05:46;26.20;93.50
16515;DHT22;8370;52.556;7.970;2022-09-12T13:08:25;26.00;93.70
16515;DHT22;8370;52.556;7.970;2022-09-12T13:16:04;25.80;94.30
16515;DHT22;8370;52.556;7.970;2022-09-12T13:18:50;25.70;94.40
16515;DHT22;8370;52.556;7.970;2022-09-12T13:21:18;25.70;94.80
16515;DHT22;8370;52.556;7.970;2022-09-12T13:23:44;25.60;94.40
16515;DHT22;8370;52.556;7.970;2022-09-12T13:26:24;25.60;95.20
16515;DHT22;8370;52.556;7.970;2022-09-12T13:29:15;25.70;95.20
16515;DHT22;8370;52.556;7.970;2022-09-12T13:31:42;25.70;95.50
16515;DHT22;8370;52.556;7.970;2022-09-12T13:34:10;25.70;95.70
16515;DHT22;8370;52.556;7.970;2022-09-12T13:42:26;25.70;95.40
16515;DHT22;8370;52.556;7.970;2022-09-12T13:47:41;25.50;95.50
16515;DHT22;8370;52.556;7.970;2022-09-12T13:50:16;25.50;96.00
16515;DHT22;8370;52.556;7.970;2022-09-12T13:52:45;25.50;95.10
16515;DHT22;8370;52.556;7.970;2022-09-12T13:55:30;25.40;95.30
16515;DHT22;8370;52.556;7.970;2022-09-12T13:58:02;25.40;95.70
16515;DHT22;8370;52.556;7.970;2022-09-12T14:00:29;25.40;95.60
16515;DHT22;8370;52.556;7.970;2022-09-12T14:02:55;25.30;95.80
16515;DHT22;8370;52.556;7.970;2022-09-12T14:05:40;25.30;96.40
16515;DHT22;8370;52.556;7.970;2022-09-12T14:08:11;25.20;96.40
16515;DHT22;8370;52.556;7.970;2022-09-12T14:10:43;25.20;96.40
16515;DHT22;8370;52.556;7.970;2022-09-12T14:15:44;25.10;96.90
16515;DHT22;8370;52.556;7.970;2022-09-12T14:18:24;25.10;97.40
16515;DHT22;8370;52.556;7.970;2022-09-12T14:20:51;25.00;96.10
16515;DHT22;8370;52.556;7.970;2022-09-12T14:23:31;25.00;96.40
16515;DHT22;8370;52.556;7.970;2022-09-12T14:26:00;25.00;96.70
16515;DHT22;8370;52.556;7.970;2022-09-12T14:28:27;25.00;96.40
16515;DHT22;8370;52.556;7.970;2022-09-12T14:31:21;25.00;97.20
16515;DHT22;8370;52.556;7.970;2022-09-12T14:33:50;25.00;97.60
16515;DHT22;8370;52.556;7.970;2022-09-12T14:38:54;24.90;98.40
16515;DHT22;8370;52.556;7.970;2022-09-12T14:41:26;24.80;98.10
16515;DHT22;8370;52.556;7.970;2022-09-12T14:43:57;24.80;97.70
16515;DHT22;8370;52.556;7.970;2022-09-12T14:46:30;24.80;97.40
16515;DHT22;8370;52.556;7.970;2022-09-12T14:48:59;24.80;98.20
16515;DHT22;8370;52.556;7.970;2022-09-12T14:52:02;24.80;98.40
16515;DHT22;8370;52.556;7.970;2022-09-12T14:57:00;24.80;98.90
16515;DHT22;8370;52.556;7.970;2022-09-12T14:59:30;24.80;99.20
16515;DHT22;8370;52.556;7.970;2022-09-12T15:04:42;24.60;99.30
16515;DHT22;8370;52.556;7.970;2022-09-12T15:09:44;24.50;99.30
16515;DHT22;8370;52.556;7.970;2022-09-12T15:12:10;24.40;99.20
16515;DHT22;8370;52.556;7.970;2022-09-12T15:14:35;24.40;99.80
16515;DHT22;8370;52.556;7.970;2022-09-12T15:17:01;24.30;99.90
16515;DHT22;8370;52.556;7.970;2022-09-12T15:19:26;24.40;99.90
16515;DHT22;8370;52.556;7.970;2022-09-12T15:21:52;24.40;99.60
16515;DHT22;8370;52.556;7.970;2022-09-12T15:24:17;24.40;99.60
16515;DHT22;8370;52.556;7.970;2022-09-12T15:26:43;24.40;99.90
16515;DHT22;8370;52.556;7.970;2022-09-12T15:29:08;24.40;99.60
16515;DHT22;8370;52.556;7.970;2022-09-12T15:31:33;24.40;99.90
16515;DHT22;8370;52.556;7.970;2022-09-12T15:34:00;24.40;99.90
16515;DHT22;8370;52.556;7.970;2022-09-12T15:36:27;24.40;99.90
16515;DHT22;8370;52.556;7.970;2022-09-12T15:38:53;24.40;99.90
16515;DHT22;8370;52.556;7.970;2022-09-12T15:41:27;24.40;99.90
16515;DHT22;8370;52.556;7.970;2022-09-12T15:43:53;24.50;99.90
16515;DHT22;8370;52.556;7.970;2022-09-12T15:46:20;24.50;99.90
16515;DHT22;8370;52.556;7.970;2022-09-12T15:48:46;24.50;99.50
16515;DHT22;8370;52.556;7.970;2022-09-12T15:51:13;24.50;99.90
16515;DHT22;8370;52.556;7.970;2022-09-12T15:53:39;24.40;99.90
16515;DHT22;8370;52.556;7.970;2022-09-12T15:56:05;24.40;99.90
16515;DHT22;8370;52.556;7.970;2022-09-12T15:58:31;24.30;99.90
16515;DHT22;8370;52.556;7.970;2022-09-12T16:00:56;24.20;99.90
16515;DHT22;8370;52.556;7.970;2022-09-12T16:03:27;24.00;99.90
16515;DHT22;8370;52.556;7.970;2022-09-12T16:05:58;24.00;99.90
16515;DHT22;8370;52.556;7.970;2022-09-12T16:08:24;24.00;99.90
16515;DHT22;8370;52.556;7.970;2022-09-12T16:10:56;23.80;99.90
16515;DHT22;8370;52.556;7.970;2022-09-12T16:13:23;23.80;99.90
16515;DHT22;8370;52.556;7.970;2022-09-12T16:15:50;23.80;99.90
16515;DHT22;8370;52.556;7.970;2022-09-12T16:18:16;23.70;99.90
16515;DHT22;8370;52.556;7.970;2022-09-12T16:20:42;23.60;99.90
16515;DHT22;8370;52.556;7.970;2022-09-12T16:23:11;23.60;99.90
16515;DHT22;8370;52.556;7.970;2022-09-12T16:25:37;23.60;99.90
16515;DHT22;8370;52.556;7.970;2022-09-12T16:28:03;23.50;99.90
16515;DHT22;8370;52.556;7.970;2022-09-12T16:30:30;23.40;99.90
16515;DHT22;8370;52.556;7.970;2022-09-12T16:32:56;23.40;99.90
16515;DHT22;8370;52.556;7.970;2022-09-12T16:35:21;23.40;99.90
16515;DHT22;8370;52.556;7.970;2022-09-12T16:37:47;23.40;99.90
16515;DHT22;8370;52.556;7.970;2022-09-12T16:40:12;23.30;99.90
16515;DHT22;8370;52.556;7.970;2022-09-12T16:42:40;23.30;99.90
16515;DHT22;8370;52.556;7.970;2022-09-12T16:45:06;23.20;99.90
16515;DHT22;8370;52.556;7.970;2022-09-12T16:47:32;23.20;99.90
16515;DHT22;8370;52.556;7.970;2022-09-12T16:49:57;23.20;99.90
16515;DHT22;8370;52.556;7.970;2022-09-12T16:52:23;23.20;99.90
16515;DHT22;8370;52.556;7.970;2022-09-12T16:54:49;23.10;99.90
16515;DHT22;8370;52.556;7.970;2022-09-12T16:57:15;23.10;99.90
16515;DHT22;8370;52.556;7.970;2022-09-12T16:59:40;23.00;99.90
16515;DHT22;8370;52.556;7.970;2022-09-12T17:02:08;22.80;99.90
16515;DHT22;8370;52.556;7.970;2022-09-12T17:04:35;22.60;99.90
16515;DHT22;8370;52.556;7.970;2022-09-12T17:07:00;22.50;99.90
16515;DHT22;8370;52.556;7.970;2022-09-12T17:09:26;22.40;99.90
16515;DHT22;8370;52.556;7.970;2022-09-12T17:11:53;22.20;99.90
16515;DHT22;8370;52.556;7.970;2022-09-12T17:14:19;22.10;99.90
16515;DHT22;8370;52.556;7.970;2022-09-12T17:16:45;22.00;99.90
16515;DHT22;8370;52.556;7.970;2022-09-12T17:19:14;21.90;99.90
16515;DHT22;8370;52.556;7.970;2022-09-12T17:21:40;21.80;99.90
16515;DHT22;8370;52.556;7.970;2022-09-12T17:24:06;21.60;99.90
16515;DHT22;8370;52.556;7.970;2022-09-12T17:26:31;21.50;99.90
16515;DHT22;8370;52.556;7.970;2022-09-12T17:28:57;21.40;99.90
16515;DHT22;8370;52.556;7.970;2022-09-12T17:31:23;21.20;99.90
16515;DHT22;8370;52.556;7.970;2022-09-12T17:33:48;21.10;99.90
16515;DHT22;8370;52.556;7.970;2022-09-12T17:36:15;20.90;99.90
16515;DHT22;8370;52.556;7.970;2022-09-12T17:38:43;20.80;99.90
16515;DHT22;8370;52.556;7.970;2022-09-12T17:41:15;20.70;99.90
16515;DHT22;8370;52.556;7.970;2022-09-12T17:43:45;20.60;99.90
16515;DHT22;8370;52.556;7.970;2022-09-12T17:46:12;20.40;99.90
16515;DHT22;8370;52.556;7.970;2022-09-12T17:48:37;20.30;99.90
16515;DHT22;8370;52.556;7.970;2022-09-12T17:51:11;20.20;99.90
16515;DHT22;8370;52.556;7.970;2022-09-12T17:53:38;20.00;99.90
16515;DHT22;8370;52.556;7.970;2022-09-12T17:56:04;19.90;99.90
16515;DHT22;8370;52.556;7.970;2022-09-12T17:58:31;19.80;99.90
16515;DHT22;8370;52.556;7.970;2022-09-12T18:01:01;19.70;99.90
16515;DHT22;8370;52.556;7.970;2022-09-12T18:03:45;19.60;99.90
16515;DHT22;8370;52.556;7.970;2022-09-12T18:06:10;19.50;99.90
16515;DHT22;8370;52.556;7.970;2022-09-12T18:08:36;19.40;99.90
16515;DHT22;8370;52.556;7.970;2022-09-12T18:11:03;19.30;99.90
16515;DHT22;8370;52.556;7.970;2022-09-12T18:13:31;19.30;99.90
16515;DHT22;8370;52.556;7.970;2022-09-12T18:16:04;19.20;99.90
16515;DHT22;8370;52.556;7.970;2022-09-12T18:18:30;19.10;99.90
16515;DHT22;8370;52.556;7.970;2022-09-12T18:20:56;19.00;99.90
16515;DHT22;8370;52.556;7.970;2022-09-12T18:23:22;18.90;99.90
16515;DHT22;8370;52.556;7.970;2022-09-12T18:25:47;18.90;99.90
16515;DHT22;8370;52.556;7.970;2022-09-12T18:28:13;18.80;99.90